OJAM/ADJ METAR and TAF weather

Enter ICAO airport designator
Station Type Date Time Source
OJAM METAR 2018/12/13 06:00 UTC NOAA

OJAM 130600Z 27007KT 4000 BR SCT030 SCT035 10/08 Q1023 NOSIG


Station Type Date Time Source
OJAM Decoded METAR 2018/12/13 06:00 UTC NOAA

Amman Airport, Jordan (OJAM) 31-59N 035-59E 768M
Dec 13, 2018 - 01:00 AM EST / 2018.12.13 0600 UTC
Wind: from the W (270 degrees) at 8 MPH (7 KT):0
Visibility: 2 mile(s):0
Sky conditions: partly cloudy
Weather: mist
Temperature: 50 F (10 C)
Dew Point: 46 F (8 C)
Relative Humidity: 87%
Pressure (altimeter): 30.21 in. Hg (1023 hPa)
ob: OJAM 130600Z 27007KT 4000 BR SCT030 SCT035 10/08 Q1023 NOSIG
cycle: 6

Station Type Date Time Source
OJAM TAF 2018/12/13 06:15 UTC NOAA

TAF OJAM 130450Z 1306/1412 29010KT 5000 BR FEW030 SCT035 PROB40 1306/1312 28010KT 4000 -RA SCT030 BKN035
BECMG 1318/1320 04010KT 5000 HZ FEW030


Example: see airport list